Time;durP1;ratioP1;P1;durP2;ratioP2;P2;SDS_P1;SDS_P2;PMS_P1;PMS_P2;Temp;Humidity;BMP_temperature;BMP_pressure;BME280_temperature;BME280_humidity;BME280_pressure;Samples;Min_cycle;Max_cycle;Signal;HPM_P1;HPM_P2
2024/01/03 09:41:06;;;;;;;6.22;4.40;;;;;;;;;;6155436;23;21325;-93
2024/01/03 09:43:43;;;;;;;5.07;4.30;;;;;;;;;;6187991;23;20083;-96
2024/01/03 09:46:10;;;;;;;4.80;4.30;;;;;;;;;;6191213;23;20013;-96
2024/01/03 09:48:41;;;;;;;5.32;4.50;;;;;;;;;;6173054;23;20063;-95
2024/01/03 09:51:10;;;;;;;5.13;4.63;;;;;;;;;;6188368;23;20482;-95
2024/01/03 09:53:37;;;;;;;6.10;4.75;;;;;;;;;;6192563;23;20005;-96
2024/01/03 09:56:03;;;;;;;5.30;4.80;;;;;;;;;;6199174;23;20001;-95
2024/01/03 09:58:28;;;;;;;5.50;4.45;;;;;;;;;;6199002;23;20005;-96
2024/01/03 10:00:57;;;;;;;5.45;4.95;;;;;;;;;;6209947;23;20009;-96
2024/01/03 10:03:23;;;;;;;5.68;4.95;;;;;;;;;;6192082;23;20061;-96
2024/01/03 10:06:15;;;;;;;5.80;5.18;;;;;;;;;;6196249;23;20047;-96
2024/01/03 10:08:41;;;;;;;7.15;5.07;;;;;;;;;;6199310;23;20013;-96
2024/01/03 10:11:27;;;;;;;6.38;5.05;;;;;;;;;;6200180;23;20032;-95
2024/01/03 10:14:22;;;;;;;6.28;5.47;;;;;;;;;;6205820;23;19993;-96
2024/01/03 10:16:54;;;;;;;6.53;5.40;;;;;;;;;;6193568;23;20479;-96
2024/01/03 10:19:42;;;;;;;7.15;5.57;;;;;;;;;;6205999;23;19989;-95
2024/01/03 10:22:09;;;;;;;7.15;5.40;;;;;;;;;;6201968;23;20016;-95
2024/01/03 10:24:46;;;;;;;6.35;5.43;;;;;;;;;;6199467;23;20004;-96
2024/01/03 10:27:12;;;;;;;6.28;5.32;;;;;;;;;;6214195;23;20037;-96
2024/01/03 10:29:43;;;;;;;8.18;6.10;;;;;;;;;;6194231;22;20084;-96
2024/01/03 10:32:31;;;;;;;7.30;5.82;;;;;;;;;;6208019;23;20089;-96
2024/01/03 10:38:17;;;;;;;11.48;5.68;;;;;;;;;;6184564;23;20007;-95
2024/01/03 10:40:47;;;;;;;7.40;5.93;;;;;;;;;;6146053;23;20049;-96
2024/01/03 10:43:19;;;;;;;9.20;5.80;;;;;;;;;;6149800;23;19990;-95
2024/01/03 10:45:45;;;;;;;9.07;6.30;;;;;;;;;;6166821;23;20021;-96
2024/01/03 11:24:28;;;;;;;4.93;4.40;;;;;;;;;;6178269;22;20028;-96
2024/01/03 11:29:44;;;;;;;6.07;4.70;;;;;;;;;;6180738;23;20344;-94
2024/01/03 11:32:12;;;;;;;5.22;4.20;;;;;;;;;;6188304;23;20009;-93
2024/01/03 11:34:47;;;;;;;7.78;4.05;;;;;;;;;;6189018;23;20013;-92
2024/01/03 11:37:19;;;;;;;5.50;4.18;;;;;;;;;;6185946;23;20005;-91
2024/01/03 11:39:53;;;;;;;5.82;4.05;;;;;;;;;;6187528;23;20416;-92
2024/01/03 11:42:31;;;;;;;5.28;4.18;;;;;;;;;;6187425;23;20005;-93
2024/01/03 11:45:13;;;;;;;6.25;4.28;;;;;;;;;;6190162;23;20009;-93
2024/01/03 11:47:46;;;;;;;6.03;4.30;;;;;;;;;;6191424;23;20008;-92
2024/01/03 11:50:14;;;;;;;6.70;4.63;;;;;;;;;;6190674;23;20028;-93
2024/01/03 11:52:45;;;;;;;5.00;4.50;;;;;;;;;;6190957;23;20036;-91
2024/01/03 11:55:13;;;;;;;5.43;4.07;;;;;;;;;;6190035;23;20017;-94
2024/01/03 11:57:43;;;;;;;6.85;5.25;;;;;;;;;;6186821;23;20001;-86
2024/01/03 12:00:20;;;;;;;4.93;4.15;;;;;;;;;;6187855;23;20001;-91
2024/01/03 12:03:04;;;;;;;5.13;4.00;;;;;;;;;;6188734;23;20005;-95
2024/01/03 12:05:30;;;;;;;6.40;4.28;;;;;;;;;;6187579;23;20005;-96
2024/01/03 12:07:57;;;;;;;7.35;4.43;;;;;;;;;;6187797;23;20007;-94
2024/01/03 12:10:24;;;;;;;5.90;5.28;;;;;;;;;;6193236;23;20005;-93
2024/01/03 12:13:02;;;;;;;4.90;4.28;;;;;;;;;;6197572;23;20207;-95
2024/01/03 12:15:28;;;;;;;4.82;4.32;;;;;;;;;;6191119;23;20031;-94
2024/01/03 12:18:05;;;;;;;4.82;4.13;;;;;;;;;;6188379;23;20019;-94
2024/01/03 12:20:46;;;;;;;5.05;3.25;;;;;;;;;;6192571;23;20021;-95
2024/01/03 12:23:17;;;;;;;3.85;3.47;;;;;;;;;;6195406;23;20014;-93
2024/01/03 12:26:01;;;;;;;5.05;3.80;;;;;;;;;;6194394;23;20005;-93
2024/01/03 12:28:27;;;;;;;3.78;3.42;;;;;;;;;;6184576;23;20012;-93
2024/01/03 12:30:53;;;;;;;5.72;4.22;;;;;;;;;;6204665;23;20069;-94
2024/01/03 12:33:58;;;;;;;5.65;3.95;;;;;;;;;;6195970;23;19985;-96
2024/01/03 12:36:25;;;;;;;5.70;4.10;;;;;;;;;;6187518;23;20040;-92
2024/01/03 12:38:58;;;;;;;4.95;4.03;;;;;;;;;;6197671;23;20028;-93
2024/01/03 12:41:24;;;;;;;4.75;3.55;;;;;;;;;;6162892;23;20017;-92
2024/01/03 12:43:53;;;;;;;4.85;3.67;;;;;;;;;;6207360;23;19993;-96
2024/01/03 12:46:22;;;;;;;;;;;;;;;;;;6177863;23;20005;-95
2024/01/03 12:49:00;;;;;;;4.95;4.05;;;;;;;;;;6200891;22;19923;-94
2024/01/03 12:51:30;;;;;;;4.55;3.50;;;;;;;;;;6162179;23;20028;-93
2024/01/03 12:53:55;;;;;;;5.47;4.53;;;;;;;;;;6172684;23;20032;-93
2024/01/03 12:56:21;;;;;;;6.03;3.58;;;;;;;;;;6168924;23;20436;-92
2024/01/03 12:58:47;;;;;;;4.78;4.00;;;;;;;;;;6161528;23;20008;-93
2024/01/03 13:01:30;;;;;;;4.85;3.70;;;;;;;;;;6194670;23;20011;-92
2024/01/03 13:03:55;;;;;;;4.72;3.35;;;;;;;;;;6194593;23;20005;-94
2024/01/03 13:06:21;;;;;;;4.82;3.92;;;;;;;;;;6176339;23;20012;-96
2024/01/03 13:08:46;;;;;;;5.03;4.00;;;;;;;;;;6146197;23;20009;-93
2024/01/03 13:11:12;;;;;;;4.60;4.07;;;;;;;;;;6166714;23;20008;-96
2024/01/03 13:13:38;;;;;;;3.90;3.50;;;;;;;;;;6164167;23;20020;-94
2024/01/03 13:16:04;;;;;;;4.45;4.05;;;;;;;;;;6164139;23;20001;-93
2024/01/03 13:18:31;;;;;;;3.50;3.20;;;;;;;;;;6169675;23;20001;-96
2024/01/03 13:20:56;;;;;;;4.72;3.38;;;;;;;;;;6175003;23;20009;-96
2024/01/03 13:23:22;;;;;;;6.25;3.78;;;;;;;;;;6165797;23;20055;-93
2024/01/03 13:25:47;;;;;;;4.43;3.20;;;;;;;;;;6165393;23;20079;-95
2024/01/03 13:28:13;;;;;;;5.75;3.40;;;;;;;;;;6163473;23;20088;-93
2024/01/03 13:30:38;;;;;;;3.88;3.38;;;;;;;;;;6162877;23;20001;-94
2024/01/03 13:33:04;;;;;;;3.63;3.33;;;;;;;;;;6163438;23;20080;-92
2024/01/03 13:35:29;;;;;;;3.80;2.97;;;;;;;;;;6163721;23;20088;-92
2024/01/03 13:37:55;;;;;;;3.35;3.05;;;;;;;;;;6162906;23;20005;-92
2024/01/03 13:40:21;;;;;;;3.72;3.30;;;;;;;;;;6162687;23;20419;-93
2024/01/03 13:42:46;;;;;;;3.50;2.92;;;;;;;;;;6162680;23;20011;-93
2024/01/03 13:45:12;;;;;;;3.65;3.35;;;;;;;;;;6166654;23;20009;-94
2024/01/03 13:47:37;;;;;;;4.57;3.58;;;;;;;;;;6139855;23;20428;-93
2024/01/03 13:50:04;;;;;;;6.35;3.97;;;;;;;;;;6166361;23;20013;-94
2024/01/03 13:52:30;;;;;;;3.88;3.22;;;;;;;;;;6164030;23;20001;-92
2024/01/03 13:54:56;;;;;;;3.85;3.25;;;;;;;;;;6163313;23;20325;-96
2024/01/03 13:57:21;;;;;;;4.10;3.67;;;;;;;;;;6162063;23;20058;-93
2024/01/03 13:59:47;;;;;;;4.18;3.70;;;;;;;;;;6158074;23;20005;-94
2024/01/03 14:02:14;;;;;;;4.50;3.50;;;;;;;;;;6158499;23;20014;-93
2024/01/03 14:04:40;;;;;;;5.38;3.70;;;;;;;;;;6158285;23;20005;-92
2024/01/03 14:07:06;;;;;;;5.30;3.38;;;;;;;;;;6157724;23;20010;-93
2024/01/03 16:14:47;;;;;;;6.67;4.60;;;;;;;;;;6158530;23;20024;-92
2024/01/03 16:17:13;;;;;;;8.10;5.30;;;;;;;;;;6188563;23;20071;-90
2024/01/03 16:19:38;;;;;;;7.03;5.25;;;;;;;;;;6187257;23;20078;-90
2024/01/03 16:22:04;;;;;;;7.40;4.25;;;;;;;;;;6186644;23;20379;-90
2024/01/03 16:24:29;;;;;;;6.78;4.45;;;;;;;;;;6187091;23;20313;-91
2024/01/03 16:27:02;;;;;;;4.03;3.58;;;;;;;;;;6187101;23;20438;-91
2024/01/03 16:29:27;;;;;;;12.85;8.35;;;;;;;;;;6187387;23;20039;-91
2024/01/03 16:31:57;;;;;;;15.05;9.30;;;;;;;;;;6187172;23;20005;-91
2024/01/03 16:34:25;;;;;;;;;;;;;;;;;;6165377;23;20015;-91
2024/01/03 16:36:55;;;;;;;12.00;8.18;;;;;;;;;;6187988;23;19908;-92
2024/01/03 16:39:21;;;;;;;18.55;11.77;;;;;;;;;;6187825;23;20001;-91
2024/01/03 16:41:50;;;;;;;13.43;8.88;;;;;;;;;;6161525;23;20039;-90
2024/01/03 16:44:17;;;;;;;10.90;8.27;;;;;;;;;;6186797;23;20008;-90
2024/01/03 16:46:46;;;;;;;12.63;8.40;;;;;;;;;;6188443;23;20009;-91
2024/01/03 16:49:12;;;;;;;11.68;6.93;;;;;;;;;;6188118;23;20004;-90
2024/01/03 16:51:41;;;;;;;10.18;6.72;;;;;;;;;;6187125;23;20092;-92
2024/01/03 16:54:08;;;;;;;9.30;6.05;;;;;;;;;;6189334;23;20041;-92
2024/01/03 16:56:38;;;;;;;11.23;7.50;;;;;;;;;;6200247;23;20001;-92
2024/01/03 16:59:04;;;;;;;11.05;5.78;;;;;;;;;;6211782;23;20004;-89
2024/01/03 17:01:30;;;;;;;10.98;7.28;;;;;;;;;;6214025;23;19992;-89
2024/01/03 17:03:59;;;;;;;12.13;7.13;;;;;;;;;;6214544;23;20001;-89
2024/01/03 17:06:24;;;;;;;7.78;5.03;;;;;;;;;;6183259;23;20451;-92
2024/01/03 17:08:53;;;;;;;8.18;4.93;;;;;;;;;;6200067;23;20080;-92
2024/01/03 17:11:25;;;;;;;6.23;4.73;;;;;;;;;;6200044;23;20011;-92
2024/01/03 17:13:52;;;;;;;5.50;4.40;;;;;;;;;;6194409;23;20001;-92
2024/01/03 17:16:21;;;;;;;6.63;4.47;;;;;;;;;;6189966;23;20032;-91
2024/01/03 17:18:51;;;;;;;7.22;4.57;;;;;;;;;;6191747;23;20424;-91
2024/01/03 17:21:17;;;;;;;6.15;4.03;;;;;;;;;;6192346;23;20001;-93
2024/01/03 17:23:43;;;;;;;6.00;3.70;;;;;;;;;;6189219;23;20005;-91
2024/01/03 17:26:14;;;;;;;5.38;3.70;;;;;;;;;;6193697;23;20012;-92
2024/01/03 17:28:39;;;;;;;5.63;4.18;;;;;;;;;;6193176;23;20005;-90
2024/01/03 17:31:06;;;;;;;6.43;4.10;;;;;;;;;;6191006;23;20443;-92
2024/01/03 17:33:32;;;;;;;9.38;6.45;;;;;;;;;;6189453;23;20067;-91
2024/01/03 17:36:02;;;;;;;8.30;5.60;;;;;;;;;;6191935;23;20413;-92
2024/01/03 17:38:27;;;;;;;5.63;4.78;;;;;;;;;;6188859;23;20009;-91
2024/01/03 17:41:09;;;;;;;6.32;4.43;;;;;;;;;;6195600;23;20412;-92
2024/01/03 17:43:36;;;;;;;4.50;3.95;;;;;;;;;;6196593;23;20020;-91
2024/01/03 17:46:06;;;;;;;5.20;3.95;;;;;;;;;;6188649;23;20067;-91
2024/01/03 17:48:32;;;;;;;5.30;4.28;;;;;;;;;;6188828;23;20016;-91
2024/01/03 17:50:59;;;;;;;6.45;4.63;;;;;;;;;;6189218;23;20012;-92
2024/01/03 17:53:26;;;;;;;5.18;3.97;;;;;;;;;;6191040;23;20030;-92
2024/01/03 17:55:55;;;;;;;14.85;6.13;;;;;;;;;;6191637;23;20067;-93
2024/01/03 17:58:21;;;;;;;5.07;3.83;;;;;;;;;;6188967;23;20012;-91
2024/01/03 18:00:47;;;;;;;8.48;5.20;;;;;;;;;;6189550;23;20067;-93
2024/01/03 18:03:12;;;;;;;48.10;18.45;;;;;;;;;;6187417;23;20016;-93
2024/01/03 18:05:40;;;;;;;35.17;14.73;;;;;;;;;;6191232;23;20340;-94
2024/01/03 18:08:07;;;;;;;16.35;7.30;;;;;;;;;;6188362;23;20332;-91
2024/01/03 18:10:34;;;;;;;40.63;19.60;;;;;;;;;;6188363;23;20436;-91
2024/01/03 18:13:01;;;;;;;16.55;8.30;;;;;;;;;;6189072;23;20067;-94
2024/01/03 18:15:27;;;;;;;7.45;5.50;;;;;;;;;;6188268;23;20017;-95
2024/01/03 18:17:57;;;;;;;8.63;5.32;;;;;;;;;;6163379;23;20016;-93
2024/01/03 18:20:24;;;;;;;8.88;5.32;;;;;;;;;;6192028;23;20009;-94
2024/01/03 18:22:51;;;;;;;8.43;5.63;;;;;;;;;;6192377;23;20012;-95
2024/01/03 18:25:19;;;;;;;27.00;16.50;;;;;;;;;;6193701;23;20013;-94
2024/01/03 18:27:45;;;;;;;87.53;44.95;;;;;;;;;;6166387;23;20009;-90
2024/01/03 18:30:11;;;;;;;32.75;19.33;;;;;;;;;;6163664;23;20020;-95
2024/01/03 18:32:37;;;;;;;28.98;17.27;;;;;;;;;;6164236;23;20032;-92
2024/01/03 18:35:05;;;;;;;33.33;19.30;;;;;;;;;;6167434;23;20012;-92
2024/01/03 18:37:40;;;;;;;22.13;13.43;;;;;;;;;;6169375;23;20056;-91
2024/01/03 18:40:08;;;;;;;12.20;7.68;;;;;;;;;;6188109;23;20012;-94
2024/01/03 18:42:36;;;;;;;13.00;9.18;;;;;;;;;;6192076;23;20031;-92
2024/01/03 18:45:04;;;;;;;19.23;13.48;;;;;;;;;;6194438;23;20381;-92
2024/01/03 18:48:22;;;;;;;16.13;10.18;;;;;;;;;;6228254;23;20012;-94
2024/01/03 18:50:48;;;;;;;15.55;10.02;;;;;;;;;;6215495;23;20040;-92
2024/01/03 18:53:27;;;;;;;19.00;12.35;;;;;;;;;;6145038;23;20009;-91
2024/01/03 18:55:55;;;;;;;13.55;8.40;;;;;;;;;;6166545;23;20028;-90
2024/01/03 18:58:22;;;;;;;14.35;8.88;;;;;;;;;;6192472;23;20009;-93
2024/01/03 19:00:49;;;;;;;11.32;7.65;;;;;;;;;;6166624;23;20072;-92
2024/01/03 19:03:15;;;;;;;11.52;7.38;;;;;;;;;;6190695;23;20012;-92
2024/01/03 19:05:41;;;;;;;10.60;7.93;;;;;;;;;;6187122;23;20465;-91
2024/01/03 19:08:07;;;;;;;8.20;6.22;;;;;;;;;;6188683;23;20005;-90
2024/01/03 19:10:37;;;;;;;8.02;5.55;;;;;;;;;;6178323;23;20057;-91
2024/01/03 19:13:03;;;;;;;;;;;;;;;;;;6190991;23;20088;-88
2024/01/03 19:15:28;;;;;;;8.65;5.50;;;;;;;;;;6187839;23;20323;-91
2024/01/03 19:17:54;;;;;;;9.80;5.75;;;;;;;;;;6189450;23;20009;-91
2024/01/03 19:20:22;;;;;;;8.13;5.70;;;;;;;;;;6165694;23;20310;-95
2024/01/03 19:22:50;;;;;;;9.30;5.70;;;;;;;;;;6165981;23;20045;-95
2024/01/03 19:25:17;;;;;;;7.53;5.30;;;;;;;;;;6189334;23;20005;-95
2024/01/03 19:27:44;;;;;;;10.38;6.18;;;;;;;;;;6168607;23;20013;-95
2024/01/03 19:30:10;;;;;;;10.27;6.40;;;;;;;;;;6188423;23;20028;-94
2024/01/03 19:32:36;;;;;;;9.68;6.00;;;;;;;;;;6189510;23;20001;-95
2024/01/03 19:35:01;;;;;;;9.98;7.13;;;;;;;;;;6162045;23;20024;-93
2024/01/03 19:37:30;;;;;;;7.40;5.60;;;;;;;;;;6189072;23;20005;-95
2024/01/03 19:39:56;;;;;;;7.75;6.00;;;;;;;;;;6188103;23;20080;-96
2024/01/03 19:42:25;;;;;;;8.70;6.80;;;;;;;;;;6178028;23;20025;-94
2024/01/03 19:44:57;;;;;;;9.70;6.07;;;;;;;;;;6163623;23;20021;-95
2024/01/03 19:47:26;;;;;;;9.15;6.35;;;;;;;;;;6189247;23;20024;-95
2024/01/03 19:49:51;;;;;;;8.68;6.05;;;;;;;;;;6163401;23;20012;-95
2024/01/03 19:52:20;;;;;;;8.85;6.82;;;;;;;;;;6136414;23;20013;-96
2024/01/03 19:54:46;;;;;;;10.77;7.43;;;;;;;;;;6161663;23;20028;-96
2024/01/03 19:57:15;;;;;;;9.73;6.45;;;;;;;;;;6170932;23;20235;-96
2024/01/03 19:59:46;;;;;;;12.40;7.95;;;;;;;;;;6167188;23;20015;-95
2024/01/03 20:02:12;;;;;;;10.35;8.30;;;;;;;;;;6192428;23;20025;-94
2024/01/03 20:04:41;;;;;;;12.27;8.13;;;;;;;;;;6162799;23;20013;-94
2024/01/03 20:07:07;;;;;;;9.52;7.35;;;;;;;;;;6168234;23;20012;-96
2024/01/03 20:09:35;;;;;;;9.70;7.40;;;;;;;;;;6201993;23;20009;-96
2024/01/03 20:12:05;;;;;;;13.55;9.07;;;;;;;;;;6173358;23;20009;-95
2024/01/03 20:14:32;;;;;;;12.20;8.95;;;;;;;;;;6162472;23;20352;-96
2024/01/03 20:17:01;;;;;;;14.98;8.07;;;;;;;;;;6147043;23;20073;-96
2024/01/03 20:19:29;;;;;;;10.95;7.65;;;;;;;;;;6142863;23;20009;-96
2024/01/03 20:22:33;;;;;;;12.57;8.35;;;;;;;;;;6169321;23;20031;-96
2024/01/03 20:25:05;;;;;;;12.95;7.85;;;;;;;;;;6195375;23;20386;-96
2024/01/03 20:27:30;;;;;;;8.90;6.82;;;;;;;;;;6169019;23;20028;-96
2024/01/03 20:29:56;;;;;;;10.25;7.95;;;;;;;;;;6191483;23;20009;-95
2024/01/03 20:32:33;;;;;;;10.73;7.95;;;;;;;;;;6186735;23;20048;-96
2024/01/03 20:35:02;;;;;;;9.77;7.43;;;;;;;;;;6180145;23;20017;-96
2024/01/03 20:37:27;;;;;;;10.32;6.95;;;;;;;;;;6162773;23;20009;-92
2024/01/03 20:39:59;;;;;;;10.65;7.45;;;;;;;;;;6194977;23;20012;-94
2024/01/03 20:42:24;;;;;;;10.60;7.10;;;;;;;;;;6166259;23;20100;-94
2024/01/03 20:44:54;;;;;;;10.15;7.35;;;;;;;;;;6162086;23;20016;-94
2024/01/03 20:47:21;;;;;;;11.23;7.30;;;;;;;;;;6141379;23;20009;-95
2024/01/03 20:49:47;;;;;;;15.65;9.13;;;;;;;;;;6137211;23;20009;-94
2024/01/03 20:52:13;;;;;;;11.50;8.00;;;;;;;;;;6163431;23;20009;-94
2024/01/03 20:54:39;;;;;;;11.23;7.68;;;;;;;;;;6161838;23;20044;-93
2024/01/03 20:57:06;;;;;;;11.70;7.88;;;;;;;;;;6162657;23;20033;-92
2024/01/03 20:59:36;;;;;;;13.43;8.00;;;;;;;;;;6162619;23;20009;-93
2024/01/03 21:02:01;;;;;;;14.20;8.27;;;;;;;;;;6186534;23;20005;-93
2024/01/03 21:04:27;;;;;;;10.90;8.45;;;;;;;;;;6163186;23;20016;-93
2024/01/03 21:06:52;;;;;;;10.35;7.60;;;;;;;;;;6163780;23;20325;-93
2024/01/03 21:09:19;;;;;;;11.60;8.73;;;;;;;;;;6162390;23;20035;-92
2024/01/03 21:11:46;;;;;;;13.57;8.23;;;;;;;;;;6163049;23;20013;-92
2024/01/03 21:14:14;;;;;;;10.35;8.02;;;;;;;;;;6188523;23;20012;-93
2024/01/03 21:16:39;;;;;;;13.60;8.57;;;;;;;;;;6161761;23;19998;-93
2024/01/03 21:19:06;;;;;;;10.70;7.95;;;;;;;;;;6163257;23;20050;-92
2024/01/03 21:21:33;;;;;;;13.30;9.25;;;;;;;;;;6166256;23;20064;-95
2024/01/03 21:23:59;;;;;;;12.93;8.30;;;;;;;;;;6164877;23;20013;-93
2024/01/03 21:26:25;;;;;;;12.20;8.63;;;;;;;;;;6162747;23;20010;-94
2024/01/03 21:28:50;;;;;;;13.82;8.90;;;;;;;;;;6162506;23;20008;-92
2024/01/03 21:31:21;;;;;;;13.10;9.27;;;;;;;;;;6140056;23;20033;-94
2024/01/03 21:33:46;;;;;;;21.38;15.55;;;;;;;;;;6162270;23;20021;-93
2024/01/03 21:36:13;;;;;;;17.98;12.68;;;;;;;;;;6164849;23;20056;-93
2024/01/03 21:38:41;;;;;;;16.17;11.50;;;;;;;;;;6163408;23;20011;-94
2024/01/03 21:41:11;;;;;;;16.58;11.05;;;;;;;;;;6142143;23;20005;-92
2024/01/03 21:43:38;;;;;;;15.55;11.50;;;;;;;;;;6162948;23;20456;-93
2024/01/03 21:46:08;;;;;;;13.75;10.25;;;;;;;;;;6165123;23;20009;-92
2024/01/03 21:48:39;;;;;;;15.18;10.80;;;;;;;;;;6141114;23;20079;-92
2024/01/03 21:51:06;;;;;;;16.83;10.75;;;;;;;;;;6163683;23;20009;-92
2024/01/03 21:53:31;;;;;;;14.82;10.10;;;;;;;;;;6163967;23;20012;-93
2024/01/03 21:55:57;;;;;;;11.45;8.60;;;;;;;;;;6164351;23;20005;-93
2024/01/03 21:58:24;;;;;;;17.90;12.65;;;;;;;;;;6164454;23;20027;-94
2024/01/03 22:00:49;;;;;;;14.95;10.23;;;;;;;;;;6166081;23;20063;-93
2024/01/03 22:03:15;;;;;;;127.10;48.22;;;;;;;;;;6190388;23;20016;-94
2024/01/03 22:05:41;;;;;;;66.35;30.77;;;;;;;;;;6163401;23;20005;-94
2024/01/03 22:08:07;;;;;;;32.55;18.30;;;;;;;;;;6166339;23;20005;-93
2024/01/03 22:10:33;;;;;;;20.48;12.63;;;;;;;;;;6165364;23;19997;-93
2024/01/03 22:13:00;;;;;;;14.35;10.40;;;;;;;;;;6169815;23;19992;-95
2024/01/03 22:15:25;;;;;;;15.18;11.02;;;;;;;;;;6180317;23;20009;-93
2024/01/03 22:17:54;;;;;;;15.50;11.15;;;;;;;;;;6180462;23;20005;-94
2024/01/03 22:20:22;;;;;;;17.13;11.27;;;;;;;;;;6166960;23;20437;-93
2024/01/03 22:22:55;;;;;;;24.98;15.85;;;;;;;;;;6166264;23;20005;-93
2024/01/03 22:25:23;;;;;;;28.60;16.85;;;;;;;;;;6177212;23;20155;-94
2024/01/03 22:27:50;;;;;;;42.00;21.65;;;;;;;;;;6167195;23;20009;-91
2024/01/03 22:30:17;;;;;;;70.78;32.03;;;;;;;;;;6165886;23;20464;-92
2024/01/03 22:32:59;;;;;;;139.27;58.70;;;;;;;;;;6171320;23;20001;-93
2024/01/03 22:35:25;;;;;;;62.88;32.42;;;;;;;;;;6170398;23;20029;-93
2024/01/03 22:37:54;;;;;;;25.77;15.23;;;;;;;;;;6153741;23;20017;-92
2024/01/03 22:40:23;;;;;;;24.10;15.13;;;;;;;;;;6175422;23;20018;-93
2024/01/03 22:42:49;;;;;;;19.77;12.95;;;;;;;;;;6167699;23;20382;-93
2024/01/03 22:45:14;;;;;;;18.65;11.70;;;;;;;;;;6168257;23;20025;-93
2024/01/03 22:47:40;;;;;;;18.77;12.38;;;;;;;;;;6168463;23;20009;-93
2024/01/03 22:50:09;;;;;;;17.10;11.88;;;;;;;;;;6167184;23;20012;-93
2024/01/03 22:52:34;;;;;;;18.80;11.80;;;;;;;;;;6169055;23;20032;-92
2024/01/03 22:55:01;;;;;;;17.83;11.88;;;;;;;;;;6169341;23;20087;-93
2024/01/03 22:57:29;;;;;;;18.33;12.18;;;;;;;;;;6164491;23;20009;-93
2024/01/03 22:59:55;;;;;;;16.83;11.35;;;;;;;;;;6164644;23;20009;-94
2024/01/03 23:02:21;;;;;;;15.50;11.43;;;;;;;;;;6192577;23;20004;-95
2024/01/03 23:04:46;;;;;;;17.83;11.95;;;;;;;;;;6164066;23;20404;-94
2024/01/03 23:07:36;;;;;;;18.23;11.55;;;;;;;;;;6181089;23;20064;-94
2024/01/03 23:10:10;;;;;;;14.07;10.52;;;;;;;;;;6173266;23;20028;-92
